createdAt,value
2019-06-01T00:01:42.671Z,11.55
2019-06-01T00:04:11.830Z,12.60
2019-06-01T00:06:40.985Z,13.05
2019-06-01T00:09:51.174Z,12.60
2019-06-01T00:12:20.644Z,12.28
2019-06-01T00:14:52.664Z,11.78
2019-06-01T00:17:22.166Z,12.55
2019-06-01T00:19:54.595Z,12.82
2019-06-01T00:22:23.990Z,14.10
2019-06-01T00:24:53.496Z,13.85
2019-06-01T00:27:26.171Z,12.55
2019-06-01T00:29:55.918Z,14.87
2019-06-01T00:32:27.225Z,12.90
2019-06-01T00:34:56.927Z,14.13
2019-06-01T00:37:28.873Z,14.20
2019-06-01T00:40:01.498Z,13.53
2019-06-01T00:42:32.893Z,14.65
2019-06-01T00:45:04.070Z,12.80
2019-06-01T00:47:33.466Z,13.10
2019-06-01T00:50:03.273Z,12.53
2019-06-01T00:52:32.687Z,13.03
2019-06-01T00:55:03.914Z,14.35
2019-06-01T00:57:33.511Z,13.30
2019-06-01T01:00:02.935Z,12.13
2019-06-01T01:02:32.046Z,12.95
2019-06-01T01:05:08.716Z,11.60
2019-06-01T01:07:38.357Z,13.00
2019-06-01T01:10:07.878Z,12.60
2019-06-01T01:12:56.186Z,13.60
2019-06-01T01:15:25.405Z,12.63
2019-06-01T01:17:56.057Z,11.93
2019-06-01T01:20:25.650Z,12.75
2019-06-01T01:22:56.391Z,14.28
2019-06-01T01:25:26.003Z,13.62
2019-06-01T01:27:55.454Z,12.85
2019-06-01T01:30:25.068Z,12.47
2019-06-01T01:32:55.663Z,12.33
2019-06-01T01:35:25.267Z,10.80
2019-06-01T01:37:58.166Z,11.68
2019-06-01T01:40:27.964Z,11.28
2019-06-01T01:46:21.402Z,11.33
2019-06-01T01:48:51.958Z,11.40
2019-06-01T01:51:21.710Z,11.48
2019-06-01T01:53:52.838Z,11.40
2019-06-01T01:56:22.496Z,12.33
2019-06-01T01:58:52.314Z,11.15
2019-06-01T02:01:23.142Z,10.18
2019-06-01T02:03:53.665Z,10.08
2019-06-01T02:06:23.759Z,11.35
2019-06-01T02:08:53.519Z,11.70
2019-06-01T02:11:23.127Z,11.10
2019-06-01T02:13:53.625Z,11.33
2019-06-01T02:16:23.010Z,10.50
2019-06-01T02:18:53.841Z,11.00
2019-06-01T02:21:23.180Z,10.43
2019-06-01T02:23:52.890Z,9.75
2019-06-01T02:26:22.222Z,9.85
2019-06-01T02:28:51.649Z,9.75
2019-06-01T02:31:37.489Z,9.33
2019-06-01T02:33:51.697Z,9.88
2019-06-01T02:36:21.435Z,10.95
2019-06-01T02:38:51.329Z,10.60
2019-06-01T02:41:20.865Z,11.70
2019-06-01T02:43:50.602Z,10.13
2019-06-01T02:46:20.515Z,10.18
2019-06-01T02:48:50.135Z,10.40
2019-06-01T02:51:20.151Z,10.98
2019-06-01T02:53:51.693Z,12.00
2019-06-01T02:56:21.273Z,9.90
2019-06-01T02:58:50.775Z,10.80
2019-06-01T03:01:37.356Z,11.22
2019-06-01T03:04:08.738Z,9.68
2019-06-01T03:06:42.213Z,10.85
2019-06-01T03:09:12.660Z,10.58
2019-06-01T03:11:43.391Z,10.90
2019-06-01T03:14:13.465Z,10.88
2019-06-01T03:16:43.403Z,9.78
2019-06-01T03:19:14.305Z,9.93
2019-06-01T03:22:28.833Z,9.83
2019-06-01T03:25:01.891Z,9.20
2019-06-01T03:27:32.654Z,9.23
2019-06-01T03:30:06.632Z,10.20
2019-06-01T03:32:37.406Z,9.93
2019-06-01T03:35:07.064Z,9.83
2019-06-01T03:37:36.516Z,10.40
2019-06-01T03:40:18.410Z,8.83
2019-06-01T03:42:38.220Z,8.90
2019-06-01T03:45:07.692Z,9.40
2019-06-01T03:47:37.123Z,9.58
2019-06-01T03:50:06.960Z,8.68
2019-06-01T03:52:36.075Z,9.67
2019-06-01T03:55:05.895Z,9.00
2019-06-01T03:57:35.231Z,9.10
2019-06-01T04:00:05.440Z,9.58
2019-06-01T04:02:34.850Z,9.08
2019-06-01T04:05:05.601Z,9.65
2019-06-01T04:07:36.154Z,8.83
2019-06-01T04:10:07.807Z,8.43
2019-06-01T04:12:50.139Z,7.70
2019-06-01T04:15:19.986Z,9.17
2019-06-01T04:17:50.294Z,8.37
2019-06-01T04:20:19.887Z,8.97
2019-06-01T04:23:53.060Z,8.23
2019-06-01T04:26:22.720Z,8.50
2019-06-01T04:28:53.498Z,7.53
2019-06-01T04:31:27.505Z,8.10
2019-06-01T04:34:23.572Z,8.33
2019-06-01T04:36:53.049Z,7.73
2019-06-01T04:39:26.622Z,9.80
2019-06-01T04:41:58.159Z,8.07
2019-06-01T04:44:27.641Z,8.17
2019-06-01T04:47:18.951Z,8.07
2019-06-01T04:49:59.280Z,9.13
2019-06-01T04:52:51.494Z,7.70
2019-06-01T04:54:58.461Z,10.60
2019-06-01T04:57:30.583Z,8.57
2019-06-01T04:59:59.644Z,8.43
2019-06-01T05:02:28.623Z,7.20
2019-06-01T05:05:33.832Z,8.73
2019-06-01T05:08:05.256Z,8.50
2019-06-01T05:10:54.146Z,7.23
2019-06-01T05:13:42.650Z,8.63
2019-06-01T05:16:14.374Z,9.50
2019-06-01T05:18:52.838Z,8.87
2019-06-01T05:21:53.471Z,8.90
2019-06-01T05:24:22.938Z,7.00
2019-06-01T05:27:11.616Z,10.00
2019-06-01T05:29:46.161Z,8.20
2019-06-01T05:38:24.795Z,11.13
2019-06-01T05:40:54.293Z,10.47
2019-06-01T05:46:14.073Z,9.30
2019-06-01T05:51:54.585Z,11.47
2019-06-01T05:55:16.765Z,10.70
2019-06-01T05:58:11.017Z,11.57
2019-06-01T06:00:42.070Z,11.40
2019-06-01T06:03:14.386Z,11.83
2019-06-01T06:05:41.543Z,11.83
2019-06-01T06:08:12.555Z,12.43
2019-06-01T06:10:41.182Z,15.07
2019-06-01T06:13:11.066Z,12.20
2019-06-01T06:15:40.037Z,13.60
2019-06-01T06:18:08.983Z,14.60
2019-06-01T06:20:38.022Z,14.37
2019-06-01T06:23:06.969Z,16.73
2019-06-01T06:25:38.392Z,15.27
2019-06-01T06:28:06.434Z,15.50
2019-06-01T06:30:35.291Z,16.03
2019-06-01T06:33:04.323Z,15.00
2019-06-01T06:35:52.576Z,14.40
2019-06-01T06:38:21.951Z,14.70
2019-06-01T06:40:50.924Z,17.07
2019-06-01T06:43:27.531Z,15.97
2019-06-01T06:45:50.707Z,14.77
2019-06-01T06:48:21.151Z,14.67
2019-06-01T06:50:50.297Z,13.30
2019-06-01T06:53:28.513Z,14.50
2019-06-01T06:55:49.919Z,14.40
2019-06-01T06:58:19.573Z,15.00
2019-06-01T07:00:49.589Z,16.33
2019-06-01T07:03:18.932Z,15.60
2019-06-01T07:05:48.470Z,13.67
2019-06-01T07:08:17.719Z,17.33
2019-06-01T07:10:46.584Z,15.17
2019-06-01T07:13:15.716Z,18.47
2019-06-01T07:15:52.035Z,19.90
2019-06-01T07:18:21.522Z,13.30
2019-06-01T07:20:50.430Z,19.40
2019-06-01T07:23:19.611Z,16.77
2019-06-01T07:25:48.558Z,15.50
2019-06-01T07:28:17.467Z,13.53
2019-06-01T07:30:50.465Z,14.50
2019-06-01T07:33:17.227Z,14.53
2019-06-01T07:35:46.361Z,14.10
2019-06-01T07:38:15.215Z,14.13
2019-06-01T07:40:44.430Z,13.37
2019-06-01T07:43:13.324Z,15.23
2019-06-01T07:45:42.197Z,13.87
2019-06-01T07:48:11.638Z,12.90
2019-06-01T07:50:40.585Z,13.00
2019-06-01T07:53:09.483Z,12.70
2019-06-01T07:55:38.578Z,12.40
2019-06-01T07:58:07.865Z,11.77
2019-06-01T08:00:37.062Z,11.50
2019-06-01T08:03:06.046Z,11.33
2019-06-01T08:05:35.307Z,10.37
2019-06-01T08:08:04.400Z,11.30
2019-06-01T08:10:33.474Z,10.90
2019-06-01T08:13:02.498Z,10.87
2019-06-01T08:15:31.913Z,9.83
2019-06-01T08:18:01.119Z,10.90
2019-06-01T08:20:30.397Z,9.80
2019-06-01T08:22:59.622Z,10.93
2019-06-01T08:25:28.779Z,9.87
2019-06-01T08:27:57.766Z,12.40
2019-06-01T08:30:26.928Z,10.93
2019-06-01T08:32:55.839Z,9.30
2019-06-01T08:35:24.943Z,10.70
2019-06-01T08:37:54.078Z,7.97
2019-06-01T08:40:23.288Z,11.30
2019-06-01T08:42:52.401Z,10.70
2019-06-01T08:45:21.390Z,9.20
2019-06-01T08:47:50.457Z,10.43
2019-06-01T08:50:19.621Z,9.60
2019-06-01T08:52:48.769Z,11.60
2019-06-01T08:55:17.869Z,10.37
2019-06-01T08:57:46.966Z,10.50
2019-06-01T09:00:16.401Z,9.93
2019-06-01T09:02:45.519Z,10.37
2019-06-01T09:05:23.967Z,9.90
2019-06-01T09:07:45.657Z,12.27
2019-06-01T09:10:14.745Z,9.80
2019-06-01T09:12:43.767Z,11.03
2019-06-01T09:15:13.174Z,11.33
2019-06-01T09:17:42.393Z,10.77
2019-06-01T09:20:11.871Z,11.00
2019-06-01T09:22:41.012Z,9.83
2019-06-01T09:25:10.456Z,9.20
2019-06-01T09:27:41.350Z,9.23
2019-06-01T09:30:11.395Z,10.47
2019-06-01T09:32:40.388Z,10.40
2019-06-01T09:35:09.743Z,8.70
2019-06-01T09:37:38.732Z,7.83
2019-06-01T09:40:08.062Z,7.13
2019-06-01T09:42:37.570Z,8.37
2019-06-01T09:45:06.900Z,9.50
2019-06-01T09:47:35.918Z,9.17
2019-06-01T09:50:05.873Z,7.63
2019-06-01T09:52:35.569Z,8.77
2019-06-01T09:55:05.155Z,11.13
2019-06-01T09:57:34.285Z,8.10
2019-06-01T10:00:04.086Z,8.90
2019-06-01T10:02:34.146Z,8.00
2019-06-01T10:05:03.476Z,6.70
2019-06-01T10:07:32.808Z,6.40
2019-06-01T10:10:01.919Z,8.07
2019-06-01T10:12:31.866Z,8.40
2019-06-01T10:15:00.879Z,7.07
2019-06-01T10:17:30.539Z,7.90
2019-06-01T10:19:59.692Z,6.90
2019-06-01T10:22:28.748Z,6.70
2019-06-01T10:24:57.723Z,7.67
2019-06-01T10:27:26.638Z,7.70
2019-06-01T10:29:55.706Z,6.80
2019-06-01T10:32:24.601Z,5.80
2019-06-01T10:34:53.648Z,6.77
2019-06-01T10:37:22.663Z,6.20
2019-06-01T10:39:51.621Z,7.20
2019-06-01T10:42:20.839Z,6.17
2019-06-01T10:44:49.791Z,5.20
2019-06-01T10:47:18.951Z,5.87
2019-06-01T10:49:47.941Z,5.50
2019-06-01T10:52:17.229Z,5.57
2019-06-01T10:54:46.360Z,6.50
2019-06-01T10:57:15.603Z,5.87
2019-06-01T10:59:44.704Z,5.97
2019-06-01T11:02:13.714Z,6.27
2019-06-01T11:04:46.411Z,5.87
2019-06-01T11:07:15.443Z,5.17
2019-06-01T11:09:47.755Z,5.13
2019-06-01T11:12:16.901Z,5.00
2019-06-01T11:14:46.457Z,3.93
2019-06-01T11:17:15.440Z,4.73
2019-06-01T11:19:44.500Z,7.17
2019-06-01T11:22:15.091Z,5.40
2019-06-01T11:24:44.076Z,4.80
2019-06-01T11:27:12.951Z,4.30
2019-06-01T11:29:49.912Z,4.80
2019-06-01T11:32:12.547Z,4.30
2019-06-01T11:34:42.430Z,4.90
2019-06-01T11:37:15.247Z,5.63
2019-06-01T11:39:42.650Z,4.43
2019-06-01T11:42:11.938Z,4.23
2019-06-01T11:44:40.897Z,4.23
2019-06-01T11:47:09.779Z,5.33
2019-06-01T11:49:38.807Z,4.80
2019-06-01T11:52:07.903Z,5.27
2019-06-01T11:54:37.103Z,5.20
2019-06-01T11:57:06.125Z,4.10
2019-06-01T11:59:35.322Z,5.83
2019-06-01T12:02:04.400Z,4.50
2019-06-01T12:04:33.781Z,4.40
2019-06-01T12:07:17.016Z,4.20
2019-06-01T12:09:33.559Z,3.93
2019-06-01T12:12:02.455Z,5.00
2019-06-01T12:14:31.779Z,4.93
2019-06-01T12:17:00.696Z,3.30
2019-06-01T12:19:29.546Z,3.87
2019-06-01T12:21:58.418Z,3.53
2019-06-01T12:24:27.287Z,4.70
2019-06-01T12:26:56.662Z,4.43
2019-06-01T12:29:49.078Z,4.00
2019-06-01T12:32:18.956Z,4.90
2019-06-01T12:35:39.810Z,4.90
2019-06-01T12:41:41.519Z,5.77
2019-06-01T12:47:10.758Z,4.97
2019-06-01T12:49:50.997Z,4.10
2019-06-01T12:52:37.035Z,4.07
2019-06-01T12:58:39.779Z,4.50
2019-06-01T13:01:09.210Z,4.20
2019-06-01T13:03:38.272Z,4.20
2019-06-01T13:06:07.331Z,4.10
2019-06-01T13:08:36.302Z,3.77
2019-06-01T13:11:05.487Z,3.50
2019-06-01T13:13:34.419Z,3.40
2019-06-01T13:16:03.469Z,4.50
2019-06-01T13:18:32.533Z,3.87
2019-06-01T13:21:01.383Z,3.20
2019-06-01T13:23:30.946Z,3.70
2019-06-01T13:26:00.020Z,3.80
2019-06-01T13:28:37.972Z,4.17
2019-06-01T13:30:59.757Z,3.70
2019-06-01T13:33:28.697Z,3.93
2019-06-01T13:35:57.839Z,3.27
2019-06-01T13:38:26.796Z,3.40
2019-06-01T13:40:55.868Z,3.90
2019-06-01T13:43:47.279Z,3.27
2019-06-01T13:46:45.524Z,3.00
2019-06-01T13:49:39.623Z,3.57
2019-06-01T13:52:24.038Z,3.77
2019-06-01T13:54:53.104Z,3.17
2019-06-01T13:57:21.985Z,3.97
2019-06-01T13:59:51.053Z,3.70
2019-06-01T14:02:19.975Z,3.53
2019-06-01T14:04:49.819Z,3.40
2019-06-01T14:07:18.929Z,4.47
2019-06-01T14:09:49.046Z,4.70
2019-06-01T14:12:18.154Z,6.43
2019-06-01T14:14:47.513Z,5.87
2019-06-01T14:17:16.576Z,6.73
2019-06-01T14:19:45.695Z,8.23
2019-06-01T14:22:14.729Z,8.20
2019-06-01T14:24:45.856Z,8.17
2019-06-01T14:27:14.463Z,8.80
2019-06-01T14:30:10.191Z,7.73
2019-06-01T14:33:24.782Z,8.80
2019-06-01T14:36:21.221Z,9.23
2019-06-01T14:38:54.253Z,7.37
2019-06-01T14:41:21.554Z,10.13
2019-06-01T14:43:51.183Z,11.30
2019-06-01T14:46:20.317Z,11.00
2019-06-01T14:48:49.437Z,10.67
2019-06-01T14:51:18.477Z,10.57
2019-06-01T14:53:47.579Z,11.20
2019-06-01T14:56:16.819Z,9.60
2019-06-01T14:58:45.762Z,10.20
2019-06-01T15:01:31.508Z,11.10
2019-06-01T15:03:45.494Z,11.63
2019-06-01T15:06:14.727Z,9.63
2019-06-01T15:09:15.361Z,10.53
2019-06-01T15:12:04.352Z,11.47
2019-06-01T15:14:36.013Z,11.37
2019-06-01T15:17:05.184Z,9.77
2019-06-01T15:19:34.294Z,9.93
2019-06-01T15:22:03.630Z,10.00
2019-06-01T15:24:32.743Z,9.50
2019-06-01T15:27:03.035Z,9.37
2019-06-01T15:29:32.220Z,9.00
2019-06-01T15:32:02.281Z,7.80
2019-06-01T15:34:31.359Z,9.50
2019-06-01T15:37:01.761Z,9.67
2019-06-01T15:39:52.636Z,9.00
2019-06-01T15:42:26.625Z,7.67
2019-06-01T15:44:59.246Z,9.37
2019-06-01T15:47:29.784Z,9.77
2019-06-01T15:50:00.044Z,8.00
2019-06-01T15:52:35.648Z,7.03
2019-06-01T15:55:07.303Z,8.13
2019-06-01T15:57:39.212Z,7.57
2019-06-01T16:00:10.731Z,9.30
2019-06-01T16:02:47.056Z,7.57
2019-06-01T16:05:18.743Z,8.27
2019-06-01T16:07:50.950Z,7.70
2019-06-01T16:10:20.675Z,7.20
2019-06-01T16:12:50.881Z,7.10
2019-06-01T16:15:23.072Z,6.00
2019-06-01T16:22:02.834Z,6.57
2019-06-01T16:24:31.037Z,5.17
2019-06-01T16:27:04.629Z,7.50
2019-06-01T16:29:34.963Z,5.20
2019-06-01T16:32:05.021Z,6.87
2019-06-01T16:34:34.381Z,6.40
2019-06-01T16:37:03.528Z,5.70
2019-06-01T16:39:35.099Z,6.03
2019-06-01T16:42:04.325Z,6.63
2019-06-01T16:44:33.436Z,6.20
2019-06-01T16:47:04.195Z,6.20
2019-06-01T16:49:33.667Z,6.07
2019-06-01T16:52:05.177Z,6.07
2019-06-01T16:54:34.436Z,6.87
2019-06-01T16:57:03.596Z,6.63
2019-06-01T16:59:32.896Z,6.10
2019-06-01T17:02:06.058Z,6.87
2019-06-01T17:04:35.316Z,7.03
2019-06-01T17:07:06.920Z,6.33
2019-06-01T17:09:36.213Z,6.80
2019-06-01T17:12:08.604Z,7.20
2019-06-01T17:14:38.045Z,7.60
2019-06-01T17:17:07.505Z,5.90
2019-06-01T17:19:37.238Z,5.70
2019-06-01T17:22:08.141Z,5.63
2019-06-01T17:24:37.142Z,6.47
2019-06-01T17:27:06.276Z,6.90
2019-06-01T17:29:35.616Z,6.30
2019-06-01T17:32:20.202Z,5.87
2019-06-01T17:34:35.725Z,5.30
2019-06-01T17:37:05.384Z,5.63
2019-06-01T17:39:34.515Z,4.90
2019-06-01T17:42:04.363Z,4.40
2019-06-01T17:44:33.674Z,3.50
2019-06-01T17:47:04.586Z,3.97
2019-06-01T17:49:33.962Z,4.90
2019-06-01T17:52:03.670Z,5.57
2019-06-01T17:54:33.308Z,5.30
2019-06-01T17:57:21.863Z,4.20
2019-06-01T17:59:50.883Z,5.20
2019-06-01T18:02:19.848Z,4.70
2019-06-01T18:04:48.719Z,3.93
2019-06-01T18:07:17.579Z,3.90
2019-06-01T18:09:46.491Z,4.20
2019-06-01T18:12:16.346Z,5.57
2019-06-01T18:14:45.417Z,5.43
2019-06-01T18:17:15.279Z,4.40
2019-06-01T18:19:44.642Z,4.60
2019-06-01T18:22:48.725Z,4.97
2019-06-01T18:26:02.526Z,4.43
2019-06-01T18:29:08.604Z,4.20
2019-06-01T18:31:51.094Z,4.13
2019-06-01T18:34:19.715Z,4.23
2019-06-01T18:36:48.904Z,4.17
2019-06-01T18:39:17.962Z,3.67
2019-06-01T18:41:46.886Z,3.03
2019-06-01T18:44:15.823Z,3.80
2019-06-01T18:46:44.908Z,3.10
2019-06-01T18:49:17.907Z,2.90
2019-06-01T18:51:44.508Z,3.60
2019-06-01T18:54:15.027Z,3.17
2019-06-01T18:56:44.201Z,3.50
2019-06-01T18:59:14.470Z,2.87
2019-06-01T19:01:43.557Z,3.00
2019-06-01T19:04:13.741Z,2.57
2019-06-01T19:06:43.574Z,2.63
2019-06-01T19:09:13.468Z,2.50
2019-06-01T19:11:43.054Z,2.47
2019-06-01T19:14:12.257Z,2.40
2019-06-01T19:16:41.513Z,2.43
2019-06-01T19:19:10.591Z,2.70
2019-06-01T19:21:39.485Z,2.70
2019-06-01T19:24:08.607Z,2.47
2019-06-01T19:26:37.615Z,2.50
2019-06-01T19:29:06.773Z,3.03
2019-06-01T19:31:39.275Z,3.30
2019-06-01T19:34:08.863Z,2.13
2019-06-01T19:36:39.288Z,2.33
2019-06-01T19:39:09.202Z,2.40
2019-06-01T19:41:44.960Z,1.73
2019-06-01T19:44:09.376Z,2.17
2019-06-01T19:46:38.513Z,2.67
2019-06-01T19:49:08.279Z,2.00
2019-06-01T19:51:42.967Z,1.90
2019-06-01T19:54:20.080Z,1.90
2019-06-01T19:56:54.524Z,1.85
2019-06-01T19:59:23.886Z,2.00
2019-06-01T20:01:54.185Z,2.17
2019-06-01T20:05:10.457Z,2.10
2019-06-01T20:24:21.453Z,2.30
2019-06-01T20:30:22.317Z,2.20
2019-06-01T20:33:42.224Z,1.80
2019-06-01T20:41:15.093Z,2.15
2019-06-01T20:59:45.918Z,2.22
2019-06-01T21:02:17.837Z,2.50
2019-06-01T21:04:48.087Z,2.85
2019-06-01T21:07:19.960Z,2.60
2019-06-01T21:12:48.426Z,2.60
2019-06-01T21:15:43.877Z,2.55
2019-06-01T21:18:20.987Z,2.85
2019-06-01T21:21:32.155Z,2.62
2019-06-01T21:24:14.729Z,2.58
2019-06-01T21:27:05.502Z,2.62
2019-06-01T21:30:11.332Z,2.55
2019-06-01T21:35:49.310Z,2.70
2019-06-01T21:38:21.754Z,2.62
2019-06-01T21:47:15.532Z,2.70
2019-06-01T21:52:47.972Z,3.10
2019-06-01T21:55:22.348Z,2.98
2019-06-01T21:57:52.396Z,2.85
2019-06-01T22:00:36.395Z,3.02
2019-06-01T22:03:14.457Z,3.65
2019-06-01T22:06:12.369Z,3.58
2019-06-01T22:09:45.111Z,2.62
2019-06-01T22:12:38.943Z,3.58
2019-06-01T22:15:19.873Z,3.27
2019-06-01T22:18:01.655Z,3.62
2019-06-01T22:20:36.845Z,3.30
2019-06-01T22:23:28.039Z,3.70
2019-06-01T22:25:57.658Z,4.00
2019-06-01T22:28:36.548Z,3.45
2019-06-01T22:31:09.342Z,3.67
2019-06-01T22:33:43.491Z,3.90
2019-06-01T22:36:22.578Z,3.92
2019-06-01T22:39:15.836Z,4.55
2019-06-01T22:47:39.238Z,4.35
2019-06-01T22:50:11.134Z,3.60
2019-06-01T22:52:40.878Z,5.58
2019-06-01T22:55:12.421Z,4.50
2019-06-01T22:57:54.560Z,4.90
2019-06-01T23:00:27.954Z,5.75
2019-06-01T23:03:27.961Z,7.00
2019-06-01T23:05:56.472Z,5.78
2019-06-01T23:08:29.359Z,7.55
2019-06-01T23:11:05.837Z,6.95
2019-06-01T23:13:52.628Z,7.05
2019-06-01T23:16:13.281Z,8.00
2019-06-01T23:18:48.656Z,6.85
2019-06-01T23:21:32.722Z,7.83
2019-06-01T23:24:04.121Z,7.62
2019-06-01T23:26:36.863Z,8.50
2019-06-01T23:29:28.157Z,7.83
2019-06-01T23:32:00.206Z,7.90
2019-06-01T23:34:32.756Z,7.60
2019-06-01T23:37:03.604Z,7.25
2019-06-01T23:42:43.981Z,6.28
2019-06-01T23:45:40.551Z,5.90
2019-06-01T23:48:25.031Z,5.50
2019-06-01T23:50:54.199Z,6.92
2019-06-01T23:53:27.908Z,5.92
2019-06-01T23:56:00.253Z,5.72
2019-06-01T23:58:34.627Z,6.20
